EGAE/LDY METAR and TAF weather

Enter ICAO airport designator
Station Type Date Time Source
EGAE METAR 2019/08/24 08:50 UTC NOAA

EGAE 240850Z VRB03KT CAVOK 18/13 Q1015


Station Type Date Time Source
EGAE Decoded METAR 2019/08/24 08:50 UTC NOAA

Station name not available
Aug 24, 2019 - 04:50 AM EDT / 2019.08.24 0850 UTC
Wind: Variable at 3 MPH (3 KT):0
Visibility: greater than 7 mile(s):0
Temperature: 64 F (18 C)
Dew Point: 55 F (13 C)
Relative Humidity: 72%
Pressure (altimeter): 29.97 in. Hg (1015 hPa)
ob: EGAE 240850Z VRB03KT CAVOK 18/13 Q1015
cycle: 9

Station Type Date Time Source
EGAE TAF UTC NOAA

Error!

Example: see airport list